Hovedside
METAR-TAF:

METAR-TAF

Lufthavner :

Charles de Gaulle internasjonale lufthavn

Paris-Charles de Gaulle, Frankrike

breddegrad: 49-01N, lengdegrad: 002-32E, høyde over havet: 118 m

Gjeldene værobservasjon

Denne rapporten ble laget for 23 minutter siden, klokken 17:30 UTC
Vind 7 kt fra Nord-nordøst, skiftende mellom Nord og Øst-nordøst
Temperatur 20°C
Luftfuktighet 46%
Trykk 1025 hPa
Sikt 10 km eller mer
ingen skyer under 1500 m og ingen bygeskyer

METAR: LFPG 231730Z 02007KT 350V070 CAVOK 20/08 Q1025 NOSIG

Tid: 19:53 (17:53 UTC)

Varsel

Denne rapporten ble laget for 53 minutter siden, klokken 17:00 UTC
Varsel gyldig fra 23. klokken 18 UTC til 24. klokken 24 UTC
Vind 8 kt fra Nord-nordøst
Sikt 10 km eller mer
ingen skyer under 1500 m og ingen bygeskyer
Midlertidig
fra 24. klokken 12 UTC til 24. klokken 18 UTC
Vind 10 kt fra Nord med vindkast opp mot 20 kt

TAF: LFPG 231700Z 2318/2424 03008KT CAVOK TEMPO 2412/2418 36010G20KT TX23/2415Z TN12/2403Z

Værobservasjoner og værvarsel for over 4000 flyplasser (METAR- og TAF-rapporter).

Tilgjengelige stasjoner er representert av de røde og gule prikkene på kartet.

Hold musepekeren over prikken for å se navnet på stasjonen.

Klikk så for å se værobservasjoner og -varsler.

For å forandre kartet kan du klikke på den grønne knappen med svart kryss for å zoome inn, på den grønne knappen med strek for å zoome ut, eller på de grønne pilene for å se tilstøtende kart.


METAR-TAF: